Time;durP1;ratioP1;P1;durP2;ratioP2;P2;SDS_P1;SDS_P2;PMS_P1;PMS_P2;Temp;Humidity;BMP_temperature;BMP_pressure;BME280_temperature;BME280_humidity;BME280_pressure;Samples;Min_cycle;Max_cycle;Signal;HPM_P1;HPM_P2
2022/03/28 00:01:10;;;;;;;8.90;3.30;;;;;;;-142.75;100.00;78846.50;5025982;28;20029;-68
2022/03/28 00:03:36;;;;;;;11.23;2.53;;;;;;;-142.75;100.00;78838.63;5027447;28;20036;-68
2022/03/28 00:06:02;;;;;;;;;;;;;;;-142.75;100.00;78846.50;5006627;28;20032;-68
2022/03/28 00:08:28;;;;;;;8.30;2.23;;;;;;;-142.75;100.00;78846.50;5007651;28;19925;-67
2022/03/28 00:10:53;;;;;;;12.52;2.80;;;;;;;-142.75;100.00;78848.47;5005831;28;20862;-68
2022/03/28 00:13:19;;;;;;;7.75;2.50;;;;;;;-142.75;100.00;78842.56;5007117;28;20034;-67
2022/03/28 00:15:45;;;;;;;10.18;2.10;;;;;;;-142.75;100.00;78842.56;5007583;28;20025;-67
2022/03/28 00:18:10;;;;;;;9.75;2.25;;;;;;;-142.75;100.00;78842.56;5026655;28;20297;-68
2022/03/28 00:20:36;;;;;;;11.80;2.80;;;;;;;-142.75;100.00;78834.69;5026519;28;20029;-67
2022/03/28 00:23:02;;;;;;;13.45;3.05;;;;;;;-142.75;100.00;78844.53;5026401;28;20029;-67
2022/03/28 00:25:28;;;;;;;12.02;2.20;;;;;;;-142.75;100.00;78840.59;5026529;28;20365;-67
2022/03/28 00:27:53;;;;;;;11.45;2.58;;;;;;;-142.75;100.00;78850.44;5026175;28;20025;-67
2022/03/28 00:30:18;;;;;;;11.52;2.30;;;;;;;-142.75;100.00;78864.22;5029717;28;20029;-67
2022/03/28 00:32:43;;;;;;;14.85;2.30;;;;;;;-142.75;100.00;78870.13;5030435;28;20426;-67
2022/03/28 00:35:09;;;;;;;14.83;1.93;;;;;;;-142.75;100.00;78874.06;5030443;28;20021;-67
2022/03/28 00:37:37;;;;;;;10.35;2.00;;;;;;;-142.75;100.00;78872.09;5030471;28;20619;-67
2022/03/28 00:40:03;;;;;;;7.30;2.20;;;;;;;-142.75;100.00;78887.84;5028693;28;20028;-67
2022/03/28 00:42:28;;;;;;;9.82;1.85;;;;;;;-142.75;100.00;78878.00;5030136;28;20021;-67
2022/03/28 00:44:54;;;;;;;9.20;2.30;;;;;;;-142.75;100.00;78883.91;5029214;28;20108;-67
2022/03/28 00:47:19;;;;;;;14.10;2.95;;;;;;;-142.75;100.00;78870.13;5030943;28;20155;-68
2022/03/28 00:49:44;;;;;;;10.85;2.47;;;;;;;-142.75;100.00;78870.13;5030787;28;20507;-67
2022/03/28 00:52:10;;;;;;;9.23;2.90;;;;;;;-142.75;100.00;78868.16;5030683;28;20037;-67
2022/03/28 00:54:36;;;;;;;15.20;3.08;;;;;;;-142.75;100.00;78866.19;5030195;28;20049;-66
2022/03/28 00:57:01;;;;;;;;;;;;;;;-142.75;100.00;78866.19;5031192;28;20075;-67
2022/03/28 00:59:27;;;;;;;12.77;2.50;;;;;;;-142.75;100.00;78862.25;5029754;28;20155;-67
2022/03/28 01:01:52;;;;;;;9.73;2.57;;;;;;;-142.75;100.00;78866.19;5029526;28;20029;-68
2022/03/28 01:04:17;;;;;;;9.98;2.60;;;;;;;-142.75;100.00;78854.38;5027113;28;20272;-66
2022/03/28 01:06:43;;;;;;;8.95;1.85;;;;;;;-142.75;100.00;78864.22;5013092;28;20026;-68
2022/03/28 01:09:08;;;;;;;13.93;3.83;;;;;;;-142.75;100.00;78864.22;5030493;28;20095;-67
2022/03/28 01:11:34;;;;;;;10.68;2.65;;;;;;;-142.75;100.00;78858.31;5014434;28;20017;-67
2022/03/28 01:14:00;;;;;;;10.27;2.20;;;;;;;-142.75;100.00;78866.19;5010813;28;20022;-68
2022/03/28 01:18:05;;;;;;;16.88;3.20;;;;;;;-142.75;100.00;78854.38;5009753;28;20026;-68
2022/03/28 01:19:18;;;;;;;11.17;2.40;;;;;;;-142.75;100.00;78860.28;5013155;28;20041;-67
2022/03/28 01:21:43;;;;;;;17.23;3.15;;;;;;;-142.75;100.00;78862.25;5009212;28;20022;-68
2022/03/28 01:24:09;;;;;;;13.23;2.85;;;;;;;-142.75;100.00;78870.13;5010050;28;20048;-68
2022/03/28 01:26:35;;;;;;;15.05;2.83;;;;;;;-142.75;100.00;78876.03;5009908;28;20032;-68
2022/03/28 01:29:01;;;;;;;13.90;3.47;;;;;;;-142.75;100.00;78887.84;5009909;28;20037;-67
2022/03/28 01:31:26;;;;;;;15.77;3.30;;;;;;;-142.75;100.00;78897.72;5010167;28;20137;-68
2022/03/28 01:33:51;;;;;;;13.87;2.90;;;;;;;-142.75;100.00;78905.59;5010012;28;20022;-67
2022/03/28 01:36:23;;;;;;;16.77;2.80;;;;;;;-142.75;100.00;78907.56;5008597;28;20283;-67
2022/03/28 01:38:48;;;;;;;10.07;3.10;;;;;;;-142.75;100.00;78905.59;5009639;28;20034;-67
2022/03/28 01:41:14;;;;;;;14.30;3.13;;;;;;;-142.75;100.00;78905.59;5009290;28;20534;-65
2022/03/28 01:43:39;;;;;;;11.88;2.65;;;;;;;-142.75;100.00;78903.63;5008471;28;20045;-68
2022/03/28 01:46:04;;;;;;;14.00;3.08;;;;;;;-142.75;100.00;78911.50;5008741;28;20061;-68
2022/03/28 01:48:29;;;;;;;16.55;2.63;;;;;;;-142.75;100.00;78929.22;5009709;28;20400;-67
2022/03/28 01:50:55;;;;;;;11.50;2.45;;;;;;;-142.75;100.00;78923.31;5008248;28;20030;-68
2022/03/28 01:53:20;;;;;;;11.82;2.85;;;;;;;-142.75;100.00;78925.28;5008740;28;20551;-67
2022/03/28 01:55:45;;;;;;;19.00;2.53;;;;;;;-142.75;100.00;78927.25;5009438;28;20072;-67
2022/03/28 01:58:10;;;;;;;9.33;2.43;;;;;;;-142.75;100.00;78929.22;5008465;28;20373;-68
2022/03/28 02:00:36;;;;;;;12.00;2.77;;;;;;;-142.75;100.00;78941.03;5010679;28;20331;-68
2022/03/28 02:03:01;;;;;;;7.47;1.97;;;;;;;-142.75;100.00;78937.09;5008538;28;20730;-68
2022/03/28 02:05:27;;;;;;;12.88;2.80;;;;;;;-142.75;100.00;78937.09;5009895;28;20280;-68
2022/03/28 02:07:53;;;;;;;;;;;;;;;-142.75;100.00;78933.16;5010134;28;20499;-67
2022/03/28 02:10:20;;;;;;;14.30;2.40;;;;;;;-142.75;100.00;78933.16;5009634;28;19917;-66
2022/03/28 02:12:46;;;;;;;9.83;2.83;;;;;;;-142.75;100.00;78943.00;5009684;28;20040;-67
2022/03/28 02:15:12;;;;;;;16.30;3.17;;;;;;;-142.75;100.00;78939.06;5009887;28;20041;-68
2022/03/28 02:17:38;;;;;;;16.90;2.42;;;;;;;-142.75;100.00;78933.16;5009883;28;20439;-66
2022/03/28 02:20:08;;;;;;;;;;;;;;;-142.75;100.00;78941.03;5010032;28;20022;-66
2022/03/28 02:22:34;;;;;;;15.10;3.00;;;;;;;-142.75;100.00;78944.97;5019988;28;19913;-68
2022/03/28 02:25:00;;;;;;;;;;;;;;;-142.75;100.00;78929.22;5029386;28;20025;-68
2022/03/28 02:27:25;;;;;;;9.63;2.70;;;;;;;-142.75;100.00;78933.16;5028918;28;19932;-67
2022/03/28 02:29:51;;;;;;;6.50;2.78;;;;;;;-142.75;100.00;78943.00;5028100;28;20044;-68
2022/03/28 02:32:16;;;;;;;15.77;2.93;;;;;;;-142.75;100.00;78956.78;5028823;28;20049;-68
2022/03/28 02:34:41;;;;;;;12.77;3.73;;;;;;;-142.75;100.00;78966.66;5028894;28;20771;-68
2022/03/28 02:37:07;;;;;;;13.30;2.97;;;;;;;-142.75;100.00;78960.72;5029000;28;20333;-67
2022/03/28 02:39:32;;;;;;;10.30;3.08;;;;;;;-142.75;100.00;78954.81;5028570;28;20021;-67
2022/03/28 02:41:57;;;;;;;14.55;3.55;;;;;;;-142.75;100.00;78948.91;5028812;28;20033;-68
2022/03/28 02:44:23;;;;;;;10.18;2.80;;;;;;;-142.75;100.00;78956.78;5027227;28;20053;-67
2022/03/28 02:46:49;;;;;;;15.48;3.25;;;;;;;-142.75;100.00;78960.72;5027445;28;20403;-67
2022/03/28 02:49:14;;;;;;;11.82;2.97;;;;;;;-142.75;100.00;78960.72;5027432;28;20029;-68
2022/03/28 02:51:40;;;;;;;7.60;2.30;;;;;;;-142.75;100.00;78952.84;5027746;28;20096;-68
2022/03/28 02:54:06;;;;;;;9.52;2.70;;;;;;;-142.75;100.00;78944.97;5026407;28;20395;-68
2022/03/28 02:56:31;;;;;;;;;;;;;;;-142.75;100.00;78946.94;5028836;28;20036;-68
2022/03/28 02:58:56;;;;;;;9.73;2.63;;;;;;;-142.75;100.00;78954.81;5028523;28;20188;-68
2022/03/28 03:01:22;;;;;;;13.48;2.83;;;;;;;-142.75;100.00;78944.97;5027425;28;20463;-67
2022/03/28 03:03:47;;;;;;;9.68;3.33;;;;;;;-142.75;100.00;78964.69;5028345;28;20458;-65
2022/03/28 03:06:12;;;;;;;9.97;2.60;;;;;;;-142.75;100.00;78970.59;5028253;28;20026;-68
2022/03/28 03:08:37;;;;;;;18.52;3.33;;;;;;;-142.75;100.00;78976.50;5027987;28;20034;-68
2022/03/28 03:11:03;;;;;;;9.95;3.28;;;;;;;-142.75;100.00;78972.56;5028152;28;20116;-68
2022/03/28 03:13:28;;;;;;;9.75;3.20;;;;;;;-142.75;100.00;78984.38;5026845;28;20032;-67
2022/03/28 03:15:53;;;;;;;10.07;3.27;;;;;;;-142.75;100.00;78984.38;5028142;28;20093;-68
2022/03/28 03:18:19;;;;;;;18.43;3.93;;;;;;;-142.75;100.00;78990.28;5028290;28;20746;-67
2022/03/28 03:20:44;;;;;;;17.30;3.47;;;;;;;-142.75;100.00;78986.34;5028035;28;20355;-68
2022/03/28 03:23:09;;;;;;;12.20;3.37;;;;;;;-142.75;100.00;78980.44;5027952;28;20288;-67
2022/03/28 03:25:35;;;;;;;12.43;2.95;;;;;;;-142.75;100.00;78982.41;5028012;28;20029;-67
2022/03/28 03:28:01;;;;;;;14.13;3.08;;;;;;;-142.75;100.00;78976.50;5027617;28;20029;-67
2022/03/28 03:30:26;;;;;;;12.45;3.47;;;;;;;-142.75;100.00;78978.47;5028716;28;20044;-67
2022/03/28 03:32:51;;;;;;;12.40;2.97;;;;;;;-142.75;100.00;78982.41;5026514;28;20112;-68
2022/03/28 03:35:16;;;;;;;15.73;3.58;;;;;;;-142.75;100.00;78996.19;5027701;28;20037;-68
2022/03/28 03:37:42;;;;;;;13.07;3.17;;;;;;;-142.75;100.00;78988.31;5027939;28;20025;-68
2022/03/28 03:40:09;;;;;;;8.65;3.40;;;;;;;-142.75;100.00;79000.13;5026315;28;20426;-68
2022/03/28 03:42:34;;;;;;;15.47;3.37;;;;;;;-142.75;100.00;78996.19;5026205;28;20029;-67
2022/03/28 03:45:01;;;;;;;18.65;4.05;;;;;;;-142.75;100.00;78988.31;5027690;28;20063;-67
2022/03/28 03:47:26;;;;;;;12.70;4.53;;;;;;;-142.75;100.00;78978.47;5027832;28;20492;-67
2022/03/28 03:49:52;;;;;;;17.40;3.83;;;;;;;-142.75;100.00;78982.41;5005771;28;20018;-65
2022/03/28 03:52:17;;;;;;;10.93;3.58;;;;;;;-142.75;100.00;78976.50;5006625;28;20064;-65
2022/03/28 03:54:43;;;;;;;6.75;2.60;;;;;;;-142.75;100.00;78972.56;5006304;28;20026;-66
2022/03/28 03:57:08;;;;;;;11.10;3.28;;;;;;;-142.75;100.00;78956.78;5006676;28;20033;-66
2022/03/28 03:59:34;;;;;;;9.60;3.47;;;;;;;-142.75;100.00;78958.75;5008377;28;20021;-67
2022/03/28 04:02:00;;;;;;;12.73;3.08;;;;;;;-142.75;100.00;78952.84;5006426;28;20029;-66
2022/03/28 04:04:25;;;;;;;9.90;2.72;;;;;;;-142.75;100.00;78960.72;5007979;28;20037;-67
2022/03/28 04:06:50;;;;;;;15.85;3.83;;;;;;;-142.75;100.00;78950.88;5007858;28;20591;-67
2022/03/28 04:09:16;;;;;;;11.00;3.55;;;;;;;-142.75;100.00;78944.97;5007742;28;20038;-66
2022/03/28 04:11:42;;;;;;;18.92;3.75;;;;;;;-142.75;100.00;78946.94;5022098;28;20035;-67
2022/03/28 04:14:07;;;;;;;11.07;3.53;;;;;;;-142.75;100.00;78958.75;5027222;28;20036;-67
2022/03/28 04:16:33;;;;;;;16.38;4.40;;;;;;;-142.75;100.00;78968.63;5027138;28;20394;-67
2022/03/28 04:18:58;;;;;;;13.07;4.28;;;;;;;-142.75;100.00;78972.56;5027448;28;20028;-67
2022/03/28 04:21:24;;;;;;;14.68;4.55;;;;;;;-142.75;100.00;78978.47;5027178;28;20407;-68
2022/03/28 04:23:49;;;;;;;11.02;3.45;;;;;;;-142.75;100.00;78974.53;5025895;28;20036;-66
2022/03/28 04:26:14;;;;;;;13.63;3.65;;;;;;;-142.75;100.00;78976.50;5027314;28;20029;-67
2022/03/28 04:28:40;;;;;;;13.95;5.07;;;;;;;-142.75;100.00;78974.53;5026941;28;20052;-68
2022/03/28 04:31:05;;;;;;;13.73;3.90;;;;;;;-142.75;100.00;78976.50;5026486;28;20423;-67
2022/03/28 04:33:30;;;;;;;12.30;3.67;;;;;;;-142.75;100.00;78966.66;5025802;28;20021;-67
2022/03/28 04:35:56;;;;;;;20.25;4.38;;;;;;;-142.75;100.00;78966.66;5027149;28;20769;-67
2022/03/28 04:38:24;;;;;;;11.60;3.85;;;;;;;-142.75;100.00;78978.47;5027052;28;20510;-67
2022/03/28 04:40:50;;;;;;;16.27;4.10;;;;;;;-142.75;100.00;78974.53;5027007;28;20029;-67
2022/03/28 04:43:15;;;;;;;8.57;3.50;;;;;;;-142.75;100.00;78976.50;5026955;28;20399;-68
2022/03/28 04:45:40;;;;;;;7.20;2.97;;;;;;;-142.75;100.00;78972.56;5027065;28;20017;-67
2022/03/28 04:48:06;;;;;;;10.25;4.18;;;;;;;-142.75;100.00;78980.44;5026767;28;20036;-68
2022/03/28 04:50:31;;;;;;;16.42;3.70;;;;;;;-142.75;100.00;78978.47;5027458;28;20386;-67
2022/03/28 04:52:56;;;;;;;10.45;3.33;;;;;;;-142.75;100.00;78964.69;5025650;28;20024;-67
2022/03/28 04:55:22;;;;;;;11.18;3.10;;;;;;;-142.75;100.00;78964.69;5025374;28;20091;-68
2022/03/28 04:57:48;;;;;;;7.93;3.88;;;;;;;-142.75;100.00;78948.91;5026719;28;20021;-66
2022/03/28 05:00:14;;;;;;;9.87;3.33;;;;;;;-142.75;100.00;78956.78;5026290;28;20506;-67
2022/03/28 05:02:40;;;;;;;9.43;3.28;;;;;;;-142.75;100.00;78960.72;5026839;28;20319;-67
2022/03/28 05:05:06;;;;;;;9.82;3.13;;;;;;;-142.75;100.00;78972.56;5025570;28;20104;-68
2022/03/28 05:07:32;;;;;;;8.52;3.63;;;;;;;-142.75;100.00;78984.38;5025528;28;21323;-68
2022/03/28 05:09:59;;;;;;;7.83;2.40;;;;;;;-142.75;100.00;78990.28;5026712;28;20159;-66
2022/03/28 05:12:25;;;;;;;14.13;3.60;;;;;;;-142.75;100.00;78992.25;5025351;28;20036;-66
2022/03/28 05:14:51;;;;;;;9.10;3.43;;;;;;;-142.75;100.00;78992.25;5026889;28;20056;-66
2022/03/28 05:17:24;;;;;;;7.97;3.17;;;;;;;-142.75;100.00;79008.00;5030356;28;20022;-67
2022/03/28 05:19:50;;;;;;;14.63;3.73;;;;;;;-142.75;100.00;78996.19;5030516;28;20029;-66
2022/03/28 05:22:15;;;;;;;9.90;3.92;;;;;;;-142.75;100.00;78984.38;5030138;28;20033;-66
2022/03/28 05:24:41;;;;;;;12.82;4.43;;;;;;;-142.75;100.00;78984.38;5030200;28;20056;-65
2022/03/28 05:27:06;;;;;;;10.30;3.17;;;;;;;-142.75;100.00;78984.38;5030047;28;20072;-66
2022/03/28 05:29:32;;;;;;;13.43;4.30;;;;;;;-142.75;100.00;78984.38;5030327;28;20403;-67
2022/03/28 05:31:57;;;;;;;12.82;4.25;;;;;;;-142.75;100.00;78976.50;5030152;28;20108;-66
2022/03/28 05:34:22;;;;;;;8.52;3.88;;;;;;;-142.75;100.00;78976.50;5029909;28;20060;-65
2022/03/28 05:36:48;;;;;;;14.00;5.07;;;;;;;-142.75;100.00;78976.50;5030011;28;20029;-66
2022/03/28 05:39:13;;;;;;;14.57;4.43;;;;;;;-142.75;100.00;78984.38;5028915;28;20022;-66
2022/03/28 05:41:39;;;;;;;14.02;5.43;;;;;;;-142.75;100.00;78976.50;5030114;28;20079;-66
2022/03/28 05:44:04;;;;;;;12.00;5.38;;;;;;;-142.75;100.00;78980.44;5029401;28;20048;-67
2022/03/28 05:46:30;;;;;;;12.75;5.38;;;;;;;-142.75;100.00;78968.63;5012948;28;20061;-67
2022/03/28 05:48:55;;;;;;;14.30;6.47;;;;;;;-142.75;100.00;78952.84;5010338;28;20021;-66
2022/03/28 05:51:21;;;;;;;15.27;5.95;;;;;;;-142.75;100.00;78958.75;5010278;28;20108;-66
2022/03/28 05:53:46;;;;;;;16.90;5.85;;;;;;;-142.75;100.00;78956.78;5009375;28;20026;-68
2022/03/28 05:56:12;;;;;;;14.13;5.65;;;;;;;-142.75;100.00;78946.94;5008762;28;20026;-67
2022/03/28 05:58:37;;;;;;;13.65;5.95;;;;;;;-142.75;100.00;78944.97;5009730;28;20022;-67
2022/03/28 06:01:03;;;;;;;16.20;6.00;;;;;;;-142.75;100.00;78933.16;5010687;28;20033;-69
2022/03/28 06:03:28;;;;;;;19.67;6.78;;;;;;;-142.75;100.00;78915.44;5008634;28;20108;-67
2022/03/28 06:05:54;;;;;;;13.63;6.25;;;;;;;-142.75;100.00;78915.44;5021690;28;20021;-67
2022/03/28 06:08:19;;;;;;;15.25;5.53;;;;;;;-142.75;100.00;78911.50;5017638;28;20073;-68
2022/03/28 06:10:44;;;;;;;14.93;5.65;;;;;;;-142.75;100.00;78897.72;5014284;28;20418;-66
2022/03/28 06:13:10;;;;;;;12.00;5.35;;;;;;;-142.75;100.00;78895.75;5023008;28;20056;-68
2022/03/28 06:15:37;;;;;;;13.85;5.93;;;;;;;-142.75;100.00;78889.81;5023691;28;20048;-67
2022/03/28 06:18:06;;;;;;;10.60;5.60;;;;;;;-142.75;100.00;78866.19;5029006;28;20458;-68
2022/03/28 06:20:34;;;;;;;14.47;6.40;;;;;;;-142.75;100.00;78846.50;5017325;28;20028;-68
2022/03/28 06:23:00;;;;;;;11.30;5.30;;;;;;;-142.75;100.00;78848.47;5010889;28;20478;-69
2022/03/28 06:25:25;;;;;;;13.18;6.00;;;;;;;-142.75;100.00;78834.69;5016858;28;20083;-65
2022/03/28 06:27:51;;;;;;;11.98;6.25;;;;;;;-142.75;100.00;78809.06;5024562;28;20037;-65
2022/03/28 06:30:17;;;;;;;13.82;5.18;;;;;;;-142.75;100.00;78795.28;5016874;28;20033;-67
2022/03/28 06:32:42;;;;;;;14.63;5.80;;;;;;;-142.75;100.00;78775.59;5022518;28;20087;-67
2022/03/28 06:35:08;;;;;;;10.57;5.57;;;;;;;-142.75;100.00;78765.75;5027588;28;20521;-67
2022/03/28 06:37:34;;;;;;;14.00;6.80;;;;;;;-142.75;100.00;78744.09;5015473;28;20033;-69
2022/03/28 06:40:00;;;;;;;;;;;;;;;-142.75;100.00;78724.38;5009549;28;20030;-67
2022/03/28 06:42:26;;;;;;;11.03;5.67;;;;;;;-142.75;100.00;78708.63;5023797;28;19968;-68
2022/03/28 06:44:51;;;;;;;11.98;6.43;;;;;;;-142.75;100.00;78692.88;5028829;28;20464;-67
2022/03/28 06:47:16;;;;;;;13.18;5.72;;;;;;;-142.75;100.00;78681.06;5028675;28;20554;-67
2022/03/28 06:49:42;;;;;;;13.40;5.43;;;;;;;-142.75;100.00;78663.31;5028571;28;20033;-68
2022/03/28 06:52:09;;;;;;;13.00;6.05;;;;;;;-142.75;100.00;78653.47;5028495;28;20029;-67
2022/03/28 06:54:35;;;;;;;12.83;6.20;;;;;;;-142.75;100.00;78614.09;5026931;28;20041;-68
2022/03/28 06:57:02;;;;;;;12.17;5.70;;;;;;;-142.75;100.00;78598.34;5013461;28;20397;-67
2022/03/28 06:59:28;;;;;;;13.10;6.33;;;;;;;-142.75;100.00;78598.34;5011477;28;20021;-67
2022/03/28 07:01:54;;;;;;;10.97;5.90;;;;;;;-142.75;100.00;78586.53;5017678;28;20033;-67
2022/03/28 07:04:20;;;;;;;15.07;6.40;;;;;;;-142.75;100.00;78558.94;5007629;28;20110;-68
2022/03/28 07:06:45;;;;;;;12.30;5.80;;;;;;;-142.75;100.00;78574.69;5008748;28;20510;-66
2022/03/28 07:09:11;;;;;;;11.82;5.88;;;;;;;-142.75;100.00;78545.16;5012903;28;20026;-67
2022/03/28 07:11:36;;;;;;;14.27;6.28;;;;;;;-142.75;100.00;78523.50;5007436;28;20030;-66
2022/03/28 07:14:02;;;;;;;17.02;6.30;;;;;;;-142.75;100.00;78519.56;5025544;28;20113;-65
2022/03/28 07:16:28;;;;;;;11.40;5.88;;;;;;;-142.75;100.00;78511.69;5027980;28;20040;-65
2022/03/28 07:18:53;;;;;;;13.60;6.40;;;;;;;-142.75;100.00;78495.94;5028328;28;20025;-66
2022/03/28 07:21:19;;;;;;;16.75;6.30;;;;;;;-142.75;100.00;78462.44;5028056;28;20025;-65
2022/03/28 07:23:44;;;;;;;16.52;5.75;;;;;;;-142.75;100.00;78432.91;5027982;28;20021;-67
2022/03/28 07:26:10;;;;;;;12.75;5.88;;;;;;;-142.75;100.00;78428.97;5027912;28;20021;-67
2022/03/28 07:28:39;;;;;;;11.52;5.97;;;;;;;-142.75;100.00;78413.22;5027621;28;20108;-66
2022/03/28 07:31:08;;;;;;;13.70;6.07;;;;;;;-142.75;100.00;78401.38;5013505;28;20030;-67
2022/03/28 07:33:33;;;;;;;18.63;6.20;;;;;;;-142.75;100.00;78375.78;5008548;28;20065;-67
2022/03/28 07:35:58;;;;;;;19.60;5.82;;;;;;;-142.75;100.00;78358.06;5007316;28;20099;-69
2022/03/28 07:38:24;;;;;;;14.07;6.38;;;;;;;-142.75;100.00;78354.13;5021535;28;20099;-69
2022/03/28 07:40:49;;;;;;;12.87;5.53;;;;;;;-142.75;100.00;78324.59;5026286;28;20490;-66
2022/03/28 07:43:15;;;;;;;11.82;5.97;;;;;;;-142.75;100.00;78318.69;5027368;28;20275;-67
2022/03/28 07:45:41;;;;;;;14.43;6.10;;;;;;;-142.75;100.00;78338.38;5021825;28;20080;-65
2022/03/28 07:48:06;;;;;;;10.25;5.88;;;;;;;-142.75;100.00;78314.75;5007659;28;20042;-65
2022/03/28 07:50:32;;;;;;;12.23;6.60;;;;;;;-142.75;100.00;78273.38;5022820;28;20017;-65
2022/03/28 07:52:58;;;;;;;15.40;5.88;;;;;;;-142.75;100.00;78267.47;5026207;28;20025;-65
2022/03/28 07:55:24;;;;;;;12.15;5.93;;;;;;;-142.75;100.00;78241.88;5027251;28;20032;-65
2022/03/28 07:57:50;;;;;;;13.85;6.47;;;;;;;-142.75;100.00;78220.22;5027263;28;20049;-67
2022/03/28 08:00:16;;;;;;;12.80;6.07;;;;;;;-142.75;100.00;78251.72;5026802;28;20060;-67
2022/03/28 08:02:42;;;;;;;12.05;5.90;;;;;;;-142.75;100.00;78259.59;5027300;28;20029;-67
2022/03/28 08:05:09;;;;;;;11.40;5.47;;;;;;;-142.75;100.00;78235.97;5027472;28;20040;-67
2022/03/28 08:07:35;;;;;;;11.45;6.22;;;;;;;-142.75;100.00;78275.34;5013842;28;20017;-67
2022/03/28 08:10:00;;;;;;;;;;;;;;;-142.75;100.00;78249.75;5008379;28;20029;-66
2022/03/28 08:12:26;;;;;;;13.23;5.85;;;;;;;-142.75;100.00;78263.53;5007534;28;19913;-67
2022/03/28 08:14:52;;;;;;;11.55;6.03;;;;;;;-142.75;100.00;78300.97;5007810;28;20030;-69
2022/03/28 08:17:19;;;;;;;16.58;6.38;;;;;;;-142.75;100.00;78232.03;5006501;28;20403;-67
2022/03/28 08:19:45;;;;;;;12.60;6.40;;;;;;;-142.75;100.00;78206.44;5007793;28;20049;-69
2022/03/28 08:22:13;;;;;;;12.80;6.55;;;;;;;-142.75;100.00;78186.75;5007827;28;20080;-66
2022/03/28 08:24:38;;;;;;;13.13;5.88;;;;;;;-142.75;100.00;78196.59;5007784;28;20025;-69
2022/03/28 08:27:04;;;;;;;10.05;5.47;;;;;;;-142.75;100.00;78172.94;5007714;28;20025;-68
2022/03/28 08:29:29;;;;;;;9.32;5.63;;;;;;;-142.75;100.00;78163.09;5007338;28;20033;-67
2022/03/28 08:31:54;;;;;;;13.73;6.32;;;;;;;-142.75;100.00;78135.53;5008366;28;20129;-67
2022/03/28 08:34:20;;;;;;;13.93;6.45;;;;;;;-142.75;100.00;78155.22;5007726;28;20022;-67
2022/03/28 08:36:46;;;;;;;12.55;6.55;;;;;;;-142.75;100.00;78165.06;5009938;28;20395;-68
2022/03/28 08:39:11;;;;;;;11.88;6.43;;;;;;;-142.75;100.00;78159.16;5015672;28;20032;-69
2022/03/28 08:41:36;;;;;;;11.20;6.35;;;;;;;-142.75;100.00;78129.63;5007403;28;20029;-68
2022/03/28 08:44:02;;;;;;;12.35;6.22;;;;;;;-142.75;100.00;78133.56;5007217;28;20022;-68
2022/03/28 08:46:29;;;;;;;17.67;6.72;;;;;;;-142.75;100.00;78082.38;5007583;28;20524;-68
2022/03/28 08:48:57;;;;;;;13.00;6.47;;;;;;;-142.75;100.00;78029.19;5007351;28;20030;-68
2022/03/28 08:51:22;;;;;;;10.95;6.72;;;;;;;-142.75;100.00;78025.25;5012846;28;20088;-68
2022/03/28 08:53:47;;;;;;;17.05;7.43;;;;;;;-142.75;100.00;77989.81;5030295;28;20675;-66
2022/03/28 08:56:13;;;;;;;13.38;6.30;;;;;;;-142.75;100.00;77968.16;5030706;28;20021;-68
2022/03/28 08:58:39;;;;;;;10.00;5.88;;;;;;;-142.75;100.00;77944.53;5030710;28;20479;-68
2022/03/28 09:01:05;;;;;;;14.07;7.05;;;;;;;-142.75;100.00;77920.91;5030106;28;20025;-68
2022/03/28 09:03:39;;;;;;;15.85;7.03;;;;;;;-142.75;100.00;77881.50;5030527;28;20052;-67
2022/03/28 09:06:35;;;;;;;18.08;6.90;;;;;;;-142.75;100.00;77850.00;5016591;28;20109;-69
2022/03/28 09:09:26;;;;;;;13.02;5.82;;;;;;;-142.75;100.00;77879.53;5009603;28;20105;-68
2022/03/28 09:12:04;;;;;;;13.07;6.68;;;;;;;-142.75;100.00;77865.75;5028134;28;20021;-67
2022/03/28 09:14:32;;;;;;;18.60;7.35;;;;;;;-142.75;100.00;77818.50;5030271;28;20120;-67
2022/03/28 09:17:13;;;;;;;15.38;6.80;;;;;;;-142.75;100.00;77806.69;5030359;28;20029;-68
2022/03/28 09:19:48;;;;;;;14.68;6.07;;;;;;;-142.75;100.00;77790.94;5016333;28;20033;-69
2022/03/28 09:22:16;;;;;;;15.32;8.27;;;;;;;-142.75;100.00;77790.94;5010035;28;20041;-68
2022/03/28 09:24:44;;;;;;;15.48;6.78;;;;;;;-142.75;100.00;77727.94;5029046;28;20499;-68
2022/03/28 09:27:15;;;;;;;15.88;7.30;;;;;;;-142.75;100.00;77727.94;5030090;28;20159;-68
2022/03/28 09:29:57;;;;;;;14.50;6.63;;;;;;;-142.75;100.00;77727.94;5013947;28;20495;-68
2022/03/28 09:32:25;;;;;;;15.88;7.38;;;;;;;-142.75;100.00;77731.88;5010973;28;20075;-69
2022/03/28 09:35:03;;;;;;;15.85;8.15;;;;;;;-142.75;100.00;77629.47;5023497;28;20029;-66
2022/03/28 09:37:29;;;;;;;20.58;8.88;;;;;;;-142.75;100.00;77611.75;5014142;28;20021;-69
2022/03/28 09:39:54;;;;;;;17.90;7.63;;;;;;;-142.75;100.00;77609.78;5027756;28;20545;-67
2022/03/28 09:42:19;;;;;;;;;;;;;;;-142.75;100.00;77625.53;5030338;28;20021;-69
2022/03/28 09:44:48;;;;;;;17.08;7.25;;;;;;;-142.75;100.00;77550.72;5029866;28;19913;-68
2022/03/28 09:47:19;;;;;;;19.23;7.32;;;;;;;-142.75;100.00;77574.34;5014806;28;20108;-68
2022/03/28 09:49:45;;;;;;;20.45;7.65;;;;;;;-142.75;100.00;77519.22;5011898;28;20026;-68
2022/03/28 09:52:12;;;;;;;17.77;8.18;;;;;;;-142.75;100.00;77507.41;5016361;28;20095;-68
2022/03/28 09:54:43;;;;;;;18.63;8.27;;;;;;;-142.75;100.00;77446.34;5029431;28;20476;-68
2022/03/28 09:57:10;;;;;;;18.17;8.35;;;;;;;-142.75;100.00;77497.56;5029737;28;20035;-66
2022/03/28 09:59:40;;;;;;;17.20;8.27;;;;;;;-142.75;100.00;77464.09;5018160;28;20091;-68
2022/03/28 10:02:22;;;;;;;19.20;8.95;;;;;;;-142.75;100.00;77410.91;5029880;28;20036;-69
2022/03/28 10:04:49;;;;;;;24.35;9.18;;;;;;;-142.75;100.00;77385.31;5021169;28;20030;-68
2022/03/28 10:07:15;;;;;;;18.23;8.02;;;;;;;-142.75;100.00;77403.03;5029374;28;20029;-68
2022/03/28 10:09:41;;;;;;;;;;;;;;;-142.75;100.00;77389.25;5029700;28;20494;-68
2022/03/28 10:12:07;;;;;;;20.50;9.07;;;;;;;-142.75;100.00;77351.84;5027877;28;19921;-68
2022/03/28 10:14:33;;;;;;;23.40;8.55;;;;;;;-142.75;100.00;77330.19;5027528;28;20053;-69
2022/03/28 10:17:00;;;;;;;;;;;;;;;-142.75;100.00;77326.25;5029490;28;20083;-68
2022/03/28 10:19:26;;;;;;;21.70;8.75;;;;;;;-142.75;100.00;77377.44;5029094;28;20517;-67
2022/03/28 10:21:51;;;;;;;;;;;;;;;-142.75;100.00;77375.47;5028186;28;20407;-68
2022/03/28 10:24:23;;;;;;;18.65;8.45;;;;;;;-142.75;100.00;77365.63;5029310;28;20012;-69
2022/03/28 10:26:55;;;;;;;22.23;8.50;;;;;;;-142.75;100.00;77351.84;5028977;28;20541;-68
2022/03/28 10:29:22;;;;;;;16.60;8.77;;;;;;;-142.75;100.00;77336.09;5028519;28;20073;-67
2022/03/28 10:31:56;;;;;;;14.30;7.57;;;;;;;-142.75;100.00;77249.47;5028326;28;20483;-68
2022/03/28 10:34:40;;;;;;;18.23;8.88;;;;;;;-142.75;100.00;77275.06;5028815;28;20422;-68
2022/03/28 10:37:24;;;;;;;19.65;9.35;;;;;;;-142.75;100.00;77275.06;5007866;28;20111;-68
2022/03/28 10:39:49;;;;;;;22.85;8.75;;;;;;;-142.75;100.00;77259.31;5007700;28;20037;-68
2022/03/28 10:42:22;;;;;;;;;;;;;;;-142.75;100.00;77259.31;5009305;28;20018;-68
2022/03/28 10:45:05;;;;;;;15.32;8.57;;;;;;;-142.75;100.00;77249.47;5009024;28;19913;-68
2022/03/28 10:47:43;;;;;;;16.02;9.32;;;;;;;-142.75;100.00;77239.63;5007733;28;20446;-68
2022/03/28 10:50:11;;;;;;;16.27;8.32;;;;;;;-142.75;100.00;77192.38;5018044;28;20510;-72
2022/03/28 10:52:36;;;;;;;16.15;8.35;;;;;;;-142.75;100.00;77196.31;5016454;28;20112;-68
2022/03/28 10:55:09;;;;;;;16.63;9.23;;;;;;;-142.75;100.00;77235.69;5024454;28;20022;-69
2022/03/28 10:57:35;;;;;;;20.02;8.40;;;;;;;-142.75;100.00;77196.31;5028772;28;20028;-69
2022/03/28 11:00:08;;;;;;;18.35;9.20;;;;;;;-142.75;100.00;77206.16;5009548;28;20029;-69
2022/03/28 11:02:34;;;;;;;19.38;8.77;;;;;;;-142.75;100.00;77192.38;5011048;28;20476;-73
2022/03/28 11:05:07;;;;;;;19.27;9.57;;;;;;;-142.75;100.00;77166.78;5008213;28;20047;-72